Terminal Aerodrome Forecast
Issued by NWS

Home | Current Version | Previous Version | Text Only | Print | Product List | Glossary On
Versions: 1 2 3 4 5 6 7 8 9 10 11 12 13 14 15 16 17 18 19 20 21 22
000
FTUS44 KLIX 271734
TAFMCB
TAF
KMCB 271734Z 2718/2818 17006KT 5SM -RA BKN025
     FM272000 16006KT P6SM BKN070
     FM280900 00000KT P6SM BKN010
      TEMPO 2811/2813 BKN003
     FM281400 00000KT P6SM BKN030
     FM281500 VRB03KT P6SM BKN045=

USA.gov is the U.S. government's official web portal to all federal, state and local government web resources and services.